createdAt,value
2023-02-08T00:01:23.552Z,16.83
2023-02-08T00:03:25.514Z,14.85
2023-02-08T00:05:27.213Z,15.82
2023-02-08T00:07:28.984Z,15.30
2023-02-08T00:09:30.698Z,14.52
2023-02-08T00:11:32.259Z,15.02
2023-02-08T00:13:34.631Z,15.15
2023-02-08T00:15:41.309Z,15.65
2023-02-08T00:17:42.984Z,15.95
2023-02-08T00:19:44.589Z,16.25
2023-02-08T00:21:46.228Z,15.48
2023-02-08T00:23:48.301Z,14.73
2023-02-08T00:25:49.928Z,15.50
2023-02-08T00:27:51.695Z,14.32
2023-02-08T00:29:53.460Z,14.82
2023-02-08T00:31:55.145Z,13.68
2023-02-08T00:33:56.816Z,15.10
2023-02-08T00:36:00.013Z,13.80
2023-02-08T00:38:01.772Z,14.82
2023-02-08T00:40:05.836Z,13.90
2023-02-08T00:42:07.577Z,14.38
2023-02-08T00:44:09.321Z,12.82
2023-02-08T00:46:11.139Z,13.65
2023-02-08T00:48:12.811Z,13.85
2023-02-08T00:50:14.552Z,13.63
2023-02-08T00:52:16.299Z,13.95
2023-02-08T00:54:19.932Z,14.52
2023-02-08T00:56:21.827Z,15.15
2023-02-08T00:58:23.954Z,13.98
2023-02-08T01:00:25.593Z,14.80
2023-02-08T01:02:27.910Z,13.25
2023-02-08T01:04:29.610Z,14.27
2023-02-08T01:06:31.412Z,14.48
2023-02-08T01:08:33.211Z,14.45
2023-02-08T01:10:34.852Z,14.80
2023-02-08T01:12:36.495Z,14.65
2023-02-08T01:14:39.315Z,14.35
2023-02-08T01:16:41.042Z,13.85
2023-02-08T01:18:44.125Z,14.73
2023-02-08T01:20:45.707Z,15.35
2023-02-08T01:22:48.618Z,16.08
2023-02-08T01:24:50.301Z,16.38
2023-02-08T01:26:52.020Z,16.15
2023-02-08T01:28:54.954Z,15.95
2023-02-08T01:30:56.739Z,16.73
2023-02-08T01:32:58.411Z,14.75
2023-02-08T01:35:00.052Z,16.00
2023-02-08T01:37:01.756Z,14.75
2023-02-08T01:39:04.256Z,14.23
2023-02-08T01:41:08.233Z,15.77
2023-02-08T01:43:22.903Z,15.55
2023-02-08T01:45:30.812Z,14.38
2023-02-08T01:47:32.494Z,14.93
2023-02-08T01:49:35.491Z,16.75
2023-02-08T01:51:55.327Z,16.00
2023-02-08T01:53:58.017Z,16.15
2023-02-08T01:56:01.713Z,14.10
2023-02-08T01:58:06.120Z,16.00
2023-02-08T02:00:21.359Z,16.52
2023-02-08T02:02:23.655Z,16.48
2023-02-08T02:04:25.849Z,17.83
2023-02-08T02:06:31.705Z,17.42
2023-02-08T02:08:33.371Z,17.13
2023-02-08T02:10:38.210Z,16.95
2023-02-08T02:12:41.040Z,18.48
2023-02-08T02:14:43.168Z,17.08
2023-02-08T02:16:44.842Z,16.90
2023-02-08T02:18:46.767Z,17.85
2023-02-08T02:21:08.082Z,17.98
2023-02-08T02:23:46.037Z,19.00
2023-02-08T02:26:09.253Z,18.98
2023-02-08T02:28:59.831Z,20.83
2023-02-08T02:31:23.134Z,20.33
2023-02-08T02:34:02.266Z,21.50
2023-02-08T02:36:06.722Z,19.33
2023-02-08T02:38:18.480Z,21.55
2023-02-08T02:40:28.905Z,21.48
2023-02-08T02:43:17.397Z,20.65
2023-02-08T02:45:37.221Z,22.50
2023-02-08T02:47:46.186Z,21.63
2023-02-08T02:49:54.637Z,20.88
2023-02-08T02:52:07.445Z,19.00
2023-02-08T02:54:13.514Z,20.55
2023-02-08T02:56:43.991Z,19.75
2023-02-08T02:58:46.053Z,19.60
2023-02-08T03:00:58.470Z,20.85
2023-02-08T03:03:00.134Z,19.17
2023-02-08T03:05:01.771Z,19.98
2023-02-08T03:07:16.587Z,20.65
2023-02-08T03:09:38.387Z,20.70
2023-02-08T03:11:46.723Z,21.13
2023-02-08T03:14:04.874Z,22.70
2023-02-08T03:16:33.035Z,22.65
2023-02-08T03:18:39.617Z,22.50
2023-02-08T03:20:59.071Z,21.63
2023-02-08T03:23:15.858Z,22.50
2023-02-08T03:25:21.580Z,23.80
2023-02-08T03:27:34.607Z,22.17
2023-02-08T03:29:59.405Z,21.10
2023-02-08T03:32:04.626Z,22.45
2023-02-08T03:34:33.397Z,21.38
2023-02-08T03:36:58.364Z,23.83
2023-02-08T03:39:01.908Z,22.90
2023-02-08T03:41:06.712Z,22.80
2023-02-08T03:43:38.490Z,23.23
2023-02-08T03:45:43.570Z,23.70
2023-02-08T03:47:47.086Z,22.73
2023-02-08T03:49:52.313Z,24.13
2023-02-08T03:51:57.791Z,24.08
2023-02-08T03:54:01.450Z,24.13
2023-02-08T03:56:07.784Z,24.48
2023-02-08T03:58:17.935Z,24.10
2023-02-08T04:00:21.612Z,25.15
2023-02-08T04:02:27.192Z,25.25
2023-02-08T04:04:34.890Z,25.38
2023-02-08T04:06:36.478Z,24.33
2023-02-08T04:08:38.139Z,23.48
2023-02-08T04:10:40.140Z,23.35
2023-02-08T04:12:42.062Z,21.92
2023-02-08T04:14:43.666Z,23.55
2023-02-08T04:16:45.298Z,23.20
2023-02-08T04:18:46.958Z,22.25
2023-02-08T04:20:48.600Z,23.67
2023-02-08T04:22:50.254Z,23.63
2023-02-08T04:24:51.845Z,26.00
2023-02-08T04:26:53.705Z,25.45
2023-02-08T04:28:55.299Z,23.02
2023-02-08T04:30:57.299Z,25.80
2023-02-08T04:33:00.211Z,26.35
2023-02-08T04:35:01.847Z,27.52
2023-02-08T04:37:03.544Z,26.42
2023-02-08T04:39:05.263Z,25.58
2023-02-08T04:41:06.896Z,24.70
2023-02-08T04:43:08.662Z,27.02
2023-02-08T04:45:11.044Z,27.02
2023-02-08T04:47:12.634Z,25.98
2023-02-08T04:49:14.382Z,25.30
2023-02-08T04:51:16.166Z,25.35
2023-02-08T04:53:17.759Z,24.95
2023-02-08T04:55:19.403Z,24.77
2023-02-08T04:57:21.035Z,24.08
2023-02-08T04:59:22.767Z,25.90
2023-02-08T05:01:24.397Z,26.80
2023-02-08T05:03:26.150Z,27.15
2023-02-08T05:05:28.511Z,29.00
2023-02-08T05:07:30.265Z,27.40
2023-02-08T05:09:31.884Z,27.52
2023-02-08T05:11:33.633Z,26.23
2023-02-08T05:13:35.227Z,29.10
2023-02-08T05:15:36.876Z,26.58
2023-02-08T05:17:38.967Z,27.23
2023-02-08T05:19:40.618Z,27.63
2023-02-08T05:21:42.248Z,28.23
2023-02-08T05:23:46.586Z,28.70
2023-02-08T05:25:48.387Z,28.13
2023-02-08T05:27:50.153Z,30.50
2023-02-08T05:29:51.850Z,29.15
2023-02-08T05:31:53.460Z,29.45
2023-02-08T05:33:55.112Z,29.13
2023-02-08T05:35:56.735Z,29.05
2023-02-08T05:37:58.349Z,27.98
2023-02-08T05:40:00.106Z,26.60
2023-02-08T05:42:01.751Z,26.60
2023-02-08T05:44:03.392Z,27.58
2023-02-08T05:46:05.182Z,26.17
2023-02-08T05:48:06.822Z,25.05
2023-02-08T05:50:09.190Z,24.02
2023-02-08T05:52:10.820Z,23.63
2023-02-08T05:54:12.516Z,22.63
2023-02-08T05:56:14.165Z,22.10
2023-02-08T05:58:16.307Z,21.00
2023-02-08T06:00:17.985Z,23.17
2023-02-08T06:02:19.581Z,22.75
2023-02-08T06:04:21.253Z,24.42
2023-02-08T06:06:22.881Z,26.63
2023-02-08T06:08:24.507Z,27.70
2023-02-08T06:10:26.183Z,26.60
2023-02-08T06:12:27.802Z,27.63
2023-02-08T06:14:29.527Z,27.25
2023-02-08T06:16:31.236Z,28.02
2023-02-08T06:18:32.914Z,23.92
2023-02-08T06:20:34.706Z,26.20
2023-02-08T06:22:36.449Z,23.65
2023-02-08T06:24:38.083Z,26.15
2023-02-08T06:26:39.800Z,26.38
2023-02-08T06:28:41.523Z,25.90
2023-02-08T06:30:43.665Z,22.58
2023-02-08T06:32:45.456Z,25.75
2023-02-08T06:34:48.366Z,29.10
2023-02-08T06:36:50.091Z,25.15
2023-02-08T06:38:51.733Z,25.77
2023-02-08T06:40:53.432Z,25.73
2023-02-08T06:42:55.136Z,29.00
2023-02-08T06:44:58.104Z,25.35
2023-02-08T06:47:00.007Z,25.80
2023-02-08T06:49:01.634Z,24.40
2023-02-08T06:51:03.509Z,23.85
2023-02-08T06:53:05.160Z,24.05
2023-02-08T06:55:07.036Z,26.20
2023-02-08T06:57:08.815Z,23.80
2023-02-08T06:59:10.470Z,25.20
2023-02-08T07:01:13.624Z,21.33
2023-02-08T07:03:17.543Z,25.10
2023-02-08T07:07:20.986Z,26.10
2023-02-08T07:09:22.626Z,27.27
2023-02-08T07:11:24.269Z,26.23
2023-02-08T07:13:25.998Z,22.38
2023-02-08T07:15:27.728Z,26.15
2023-02-08T07:17:29.335Z,22.10
2023-02-08T07:19:31.506Z,22.75
2023-02-08T07:21:33.137Z,24.10
2023-02-08T07:23:34.789Z,25.55
2023-02-08T07:25:36.400Z,25.33
2023-02-08T07:27:38.099Z,22.95
2023-02-08T07:29:40.126Z,25.25
2023-02-08T07:31:41.906Z,22.60
2023-02-08T07:33:43.825Z,20.10
2023-02-08T07:35:45.416Z,19.63
2023-02-08T07:37:47.214Z,19.33
2023-02-08T07:39:48.853Z,19.20
2023-02-08T07:41:50.479Z,17.20
2023-02-08T07:43:52.174Z,18.30
2023-02-08T07:45:53.881Z,19.67
2023-02-08T07:47:55.486Z,17.92
2023-02-08T07:49:57.226Z,19.20
2023-02-08T07:52:00.179Z,19.15
2023-02-08T07:54:01.985Z,19.50
2023-02-08T07:56:03.946Z,19.95
2023-02-08T07:58:05.641Z,19.55
2023-02-08T08:00:08.010Z,18.95
2023-02-08T08:02:09.838Z,19.42
2023-02-08T08:04:11.697Z,18.92
2023-02-08T08:06:13.439Z,17.20
2023-02-08T08:08:15.110Z,16.75
2023-02-08T08:10:16.776Z,18.10
2023-02-08T08:12:18.538Z,18.02
2023-02-08T08:14:20.302Z,18.35
2023-02-08T08:16:22.622Z,18.38
2023-02-08T08:18:24.324Z,16.65
2023-02-08T08:20:26.131Z,17.20
2023-02-08T08:22:27.928Z,17.77
2023-02-08T08:24:31.764Z,17.02
2023-02-08T08:28:34.997Z,17.63
2023-02-08T08:30:36.683Z,17.55
2023-02-08T08:32:38.512Z,17.20
2023-02-08T08:34:40.272Z,17.15
2023-02-08T08:36:41.956Z,18.08
2023-02-08T08:38:43.679Z,17.48
2023-02-08T08:40:45.247Z,16.95
2023-02-08T08:42:46.802Z,17.58
2023-02-08T08:44:48.439Z,17.10
2023-02-08T08:46:50.084Z,17.60
2023-02-08T08:48:52.174Z,16.60
2023-02-08T08:50:55.122Z,15.95
2023-02-08T08:52:56.806Z,16.77
2023-02-08T08:54:58.447Z,22.88
2023-02-08T08:57:00.114Z,17.60
2023-02-08T08:59:01.761Z,16.08
2023-02-08T09:01:03.636Z,16.35
2023-02-08T09:03:05.351Z,16.25
2023-02-08T09:05:08.271Z,16.55
2023-02-08T09:07:10.624Z,17.67
2023-02-08T09:09:12.478Z,17.17
2023-02-08T09:11:15.384Z,16.95
2023-02-08T09:13:19.894Z,13.57
2023-02-08T09:15:21.623Z,14.27
2023-02-08T09:17:23.235Z,13.50
2023-02-08T09:19:24.935Z,12.90
2023-02-08T09:21:26.740Z,13.45
2023-02-08T09:23:28.480Z,14.70
2023-02-08T09:25:30.065Z,14.02
2023-02-08T09:27:31.700Z,16.65
2023-02-08T09:29:33.865Z,16.50
2023-02-08T09:31:38.032Z,13.02
2023-02-08T09:33:39.806Z,12.70
2023-02-08T09:35:41.846Z,12.55
2023-02-08T09:37:43.602Z,13.68
2023-02-08T09:39:45.652Z,13.80
2023-02-08T09:41:47.725Z,13.15
2023-02-08T09:44:20.307Z,13.25
2023-02-08T09:46:24.764Z,13.77
2023-02-08T09:48:35.166Z,14.48
2023-02-08T09:50:41.135Z,12.27
2023-02-08T09:52:47.859Z,13.07
2023-02-08T09:54:52.941Z,12.48
2023-02-08T09:56:54.988Z,12.23
2023-02-08T09:58:57.964Z,13.63
2023-02-08T10:01:00.229Z,12.70
2023-02-08T10:03:02.888Z,13.48
2023-02-08T10:05:11.197Z,11.02
2023-02-08T10:07:12.943Z,11.82
2023-02-08T10:09:15.371Z,10.65
2023-02-08T10:11:41.084Z,10.95
2023-02-08T10:14:10.237Z,13.63
2023-02-08T10:16:16.880Z,14.07
2023-02-08T10:18:24.977Z,10.95
2023-02-08T10:20:57.808Z,11.45
2023-02-08T10:23:21.880Z,11.82
2023-02-08T10:25:23.921Z,12.25
2023-02-08T10:27:40.845Z,11.43
2023-02-08T10:29:58.707Z,11.02
2023-02-08T10:32:15.357Z,11.13
2023-02-08T10:34:36.924Z,10.85
2023-02-08T10:36:45.587Z,11.48
2023-02-08T10:38:50.502Z,9.95
2023-02-08T10:41:09.672Z,11.63
2023-02-08T10:43:34.338Z,11.93
2023-02-08T10:45:49.159Z,10.13
2023-02-08T10:48:02.234Z,9.95
2023-02-08T10:50:45.674Z,10.40
2023-02-08T10:52:51.921Z,11.50
2023-02-08T10:54:56.158Z,9.20
2023-02-08T10:57:03.374Z,8.85
2023-02-08T10:59:23.028Z,9.35
2023-02-08T11:01:25.946Z,8.95
2023-02-08T11:03:39.771Z,9.98
2023-02-08T11:05:46.677Z,9.93
2023-02-08T11:07:59.373Z,10.20
2023-02-08T11:10:14.960Z,10.07
2023-02-08T11:12:22.999Z,12.48
2023-02-08T11:14:47.619Z,10.10
2023-02-08T11:19:04.693Z,11.73
2023-02-08T11:21:13.912Z,11.45
2023-02-08T11:23:29.081Z,11.07
2023-02-08T11:25:37.509Z,10.43
2023-02-08T11:27:50.610Z,10.88
2023-02-08T11:30:19.486Z,11.07
2023-02-08T11:32:21.351Z,10.60
2023-02-08T11:34:30.286Z,10.25
2023-02-08T11:36:34.244Z,10.55
2023-02-08T11:38:37.351Z,10.95
2023-02-08T11:40:45.404Z,12.52
2023-02-08T11:42:49.818Z,11.73
2023-02-08T11:44:54.390Z,10.73
2023-02-08T11:47:01.542Z,10.70
2023-02-08T11:49:03.744Z,11.27
2023-02-08T11:51:05.946Z,10.65
2023-02-08T11:53:21.338Z,9.75
2023-02-08T11:55:29.904Z,10.38
2023-02-08T11:57:33.252Z,11.18
2023-02-08T11:59:34.854Z,10.05
2023-02-08T12:01:38.579Z,9.18
2023-02-08T12:03:40.708Z,10.13
2023-02-08T12:06:07.996Z,8.93
2023-02-08T12:08:24.010Z,10.55
2023-02-08T12:10:58.165Z,9.75
2023-02-08T12:13:22.098Z,9.37
2023-02-08T12:15:58.275Z,10.20
2023-02-08T12:18:12.321Z,10.30
2023-02-08T12:20:26.038Z,9.43
2023-02-08T12:22:29.467Z,9.82
2023-02-08T12:24:30.987Z,9.77
2023-02-08T12:27:03.681Z,9.80
2023-02-08T12:29:45.694Z,9.15
2023-02-08T12:32:00.874Z,10.25
2023-02-08T12:38:03.780Z,9.23
2023-02-08T12:40:30.151Z,9.68
2023-02-08T12:42:41.276Z,9.70
2023-02-08T12:45:07.664Z,9.48
2023-02-08T12:47:27.705Z,8.40
2023-02-08T12:49:42.517Z,7.82
2023-02-08T12:51:47.208Z,8.25
2023-02-08T12:54:00.856Z,8.05
2023-02-08T12:56:07.148Z,6.95
2023-02-08T12:58:31.267Z,7.65
2023-02-08T13:00:35.163Z,8.30
2023-02-08T13:04:49.501Z,6.88
2023-02-08T13:06:58.489Z,7.28
2023-02-08T13:09:08.689Z,7.50
2023-02-08T13:11:33.362Z,6.53
2023-02-08T13:15:46.116Z,6.78
2023-02-08T13:18:13.305Z,7.10
2023-02-08T13:20:32.523Z,7.10
2023-02-08T13:22:39.954Z,7.32
2023-02-08T13:24:44.245Z,7.18
2023-02-08T13:26:45.803Z,5.95
2023-02-08T13:28:50.087Z,7.28
2023-02-08T13:31:01.016Z,6.05
2023-02-08T13:33:30.375Z,6.68
2023-02-08T13:35:32.515Z,6.13
2023-02-08T13:37:35.308Z,6.32
2023-02-08T13:39:42.768Z,6.28
2023-02-08T13:41:54.424Z,6.65
2023-02-08T13:44:04.432Z,6.45
2023-02-08T13:46:06.646Z,5.72
2023-02-08T13:48:11.685Z,6.45
2023-02-08T13:50:48.636Z,7.38
2023-02-08T13:52:51.594Z,7.68
2023-02-08T13:55:35.884Z,7.28
2023-02-08T13:57:54.923Z,6.47
2023-02-08T14:00:26.329Z,6.55
2023-02-08T14:02:28.827Z,6.68
2023-02-08T14:04:33.988Z,7.53
2023-02-08T14:06:43.586Z,7.60
2023-02-08T14:09:07.237Z,7.18
2023-02-08T14:11:11.775Z,6.65
2023-02-08T14:13:32.882Z,6.85
2023-02-08T14:15:37.700Z,7.57
2023-02-08T14:17:46.487Z,6.93
2023-02-08T14:20:00.395Z,7.60
2023-02-08T14:22:15.841Z,7.15
2023-02-08T14:24:23.617Z,8.50
2023-02-08T14:26:25.352Z,8.10
2023-02-08T14:28:29.732Z,8.88
2023-02-08T14:30:33.421Z,8.88
2023-02-08T14:32:39.683Z,8.82
2023-02-08T14:34:41.476Z,7.95
2023-02-08T14:36:43.198Z,9.20
2023-02-08T14:38:47.594Z,8.32
2023-02-08T14:40:58.749Z,8.95
2023-02-08T14:43:25.408Z,9.02
2023-02-08T14:45:35.400Z,10.05
2023-02-08T14:47:39.702Z,9.23
2023-02-08T14:49:45.524Z,9.15
2023-02-08T14:51:52.075Z,8.57
2023-02-08T14:54:04.742Z,8.10
2023-02-08T14:56:33.969Z,9.38
2023-02-08T14:58:38.246Z,9.73
2023-02-08T15:00:40.088Z,9.95
2023-02-08T15:02:45.073Z,10.68
2023-02-08T15:04:47.505Z,9.85
2023-02-08T15:07:14.828Z,9.85
2023-02-08T15:09:19.181Z,9.10
2023-02-08T15:11:27.247Z,8.65
2023-02-08T15:13:29.676Z,9.55
2023-02-08T15:15:34.262Z,9.38
2023-02-08T15:17:40.809Z,8.75
2023-02-08T15:19:43.260Z,9.73
2023-02-08T15:21:44.998Z,9.23
2023-02-08T15:24:00.341Z,8.77
2023-02-08T15:26:19.436Z,9.68
2023-02-08T15:28:23.934Z,11.13
2023-02-08T15:30:36.221Z,11.45
2023-02-08T15:32:40.457Z,10.30
2023-02-08T15:34:47.179Z,14.40
2023-02-08T15:36:51.604Z,10.73
2023-02-08T15:38:54.355Z,9.63
2023-02-08T15:41:12.011Z,9.93
2023-02-08T15:43:13.731Z,11.07
2023-02-08T15:45:27.073Z,9.23
2023-02-08T15:47:31.931Z,8.00
2023-02-08T15:49:38.384Z,8.52
2023-02-08T15:51:40.206Z,8.23
2023-02-08T15:53:44.274Z,8.23
2023-02-08T15:55:49.382Z,9.00
2023-02-08T15:58:09.639Z,8.48
2023-02-08T16:00:14.590Z,8.77
2023-02-08T16:02:22.098Z,8.88
2023-02-08T16:04:24.835Z,8.90
2023-02-08T16:06:29.291Z,9.48
2023-02-08T16:08:33.530Z,8.93
2023-02-08T16:10:44.817Z,9.35
2023-02-08T16:12:51.948Z,8.50
2023-02-08T16:14:57.069Z,8.32
2023-02-08T16:16:58.883Z,9.57
2023-02-08T16:19:20.245Z,8.85
2023-02-08T16:21:24.596Z,9.70
2023-02-08T16:23:34.548Z,8.60
2023-02-08T16:25:49.763Z,8.95
2023-02-08T16:27:51.517Z,8.77
2023-02-08T16:29:53.538Z,9.38
2023-02-08T16:32:40.049Z,8.93
2023-02-08T16:34:41.683Z,9.50
2023-02-08T16:36:46.601Z,8.32
2023-02-08T16:39:14.179Z,7.85
2023-02-08T16:41:19.194Z,8.90
2023-02-08T16:43:29.112Z,8.85
2023-02-08T16:45:30.769Z,8.65
2023-02-08T16:47:46.051Z,8.18
2023-02-08T16:49:49.623Z,8.95
2023-02-08T16:51:53.462Z,8.10
2023-02-08T16:53:56.913Z,7.97
2023-02-08T16:55:59.465Z,9.60
2023-02-08T16:58:01.178Z,8.57
2023-02-08T17:00:03.205Z,10.77
2023-02-08T17:02:11.140Z,9.27
2023-02-08T17:04:12.824Z,9.70
2023-02-08T17:06:35.360Z,9.73
2023-02-08T17:08:37.570Z,10.10
2023-02-08T17:10:39.221Z,9.60
2023-02-08T17:12:40.840Z,10.68
2023-02-08T17:14:42.403Z,14.25
2023-02-08T17:16:44.179Z,17.35
2023-02-08T17:18:47.021Z,18.17
2023-02-08T17:20:48.672Z,12.65
2023-02-08T17:22:51.269Z,15.73
2023-02-08T17:24:52.902Z,15.68
2023-02-08T17:26:54.865Z,13.15
2023-02-08T17:28:59.345Z,19.70
2023-02-08T17:31:01.184Z,17.15
2023-02-08T17:33:04.297Z,12.10
2023-02-08T17:35:06.194Z,17.00
2023-02-08T17:37:08.820Z,16.27
2023-02-08T17:39:10.767Z,14.65
2023-02-08T17:41:18.069Z,13.52
2023-02-08T17:43:19.810Z,13.23
2023-02-08T17:45:21.574Z,13.65
2023-02-08T17:47:23.210Z,12.82
2023-02-08T17:49:24.813Z,11.60
2023-02-08T17:51:26.416Z,10.38
2023-02-08T17:53:28.019Z,12.13
2023-02-08T17:55:29.649Z,12.63
2023-02-08T17:57:36.434Z,12.52
2023-02-08T17:59:41.060Z,12.15
2023-02-08T18:01:44.513Z,13.05
2023-02-08T18:03:47.379Z,12.70
2023-02-08T18:05:55.806Z,12.80
2023-02-08T18:07:57.473Z,12.63
2023-02-08T18:09:59.101Z,14.93
2023-02-08T18:12:00.890Z,12.30
2023-02-08T18:14:02.561Z,11.68
2023-02-08T18:16:15.182Z,12.23
2023-02-08T18:18:18.326Z,13.07
2023-02-08T18:20:20.058Z,10.80
2023-02-08T18:22:22.884Z,11.63
2023-02-08T18:24:25.723Z,11.55
2023-02-08T18:26:27.384Z,11.05
2023-02-08T18:28:29.079Z,11.00
2023-02-08T18:30:31.017Z,10.63
2023-02-08T18:32:32.585Z,10.88
2023-02-08T18:34:34.508Z,11.45
2023-02-08T18:36:36.651Z,15.90
2023-02-08T18:38:46.295Z,12.57
2023-02-08T18:40:47.927Z,10.38
2023-02-08T18:42:49.864Z,10.88
2023-02-08T18:44:51.721Z,9.73
2023-02-08T18:46:53.467Z,10.15
2023-02-08T18:48:55.800Z,10.82
2023-02-08T18:50:59.473Z,10.43
2023-02-08T18:53:01.136Z,11.30
2023-02-08T18:55:02.873Z,11.90
2023-02-08T18:57:06.268Z,10.82
2023-02-08T18:59:08.164Z,12.40
2023-02-08T19:01:16.100Z,15.38
2023-02-08T19:03:18.876Z,12.77
2023-02-08T19:05:20.502Z,12.55
2023-02-08T19:07:22.069Z,12.68
2023-02-08T19:09:23.652Z,11.98
2023-02-08T19:11:34.244Z,11.60
2023-02-08T19:13:35.805Z,12.70
2023-02-08T19:15:38.404Z,12.23
2023-02-08T19:17:40.117Z,11.93
2023-02-08T19:19:42.087Z,12.27
2023-02-08T19:21:43.750Z,12.98
2023-02-08T19:23:52.359Z,12.38
2023-02-08T19:25:54.025Z,12.95
2023-02-08T19:27:56.026Z,11.88
2023-02-08T19:29:57.722Z,12.55
2023-02-08T19:31:59.404Z,13.00
2023-02-08T19:34:02.630Z,12.95
2023-02-08T19:36:09.084Z,14.02
2023-02-08T19:38:10.818Z,12.57
2023-02-08T19:40:12.828Z,13.82
2023-02-08T19:42:14.465Z,13.60
2023-02-08T19:44:17.887Z,12.88
2023-02-08T19:46:22.409Z,14.10
2023-02-08T19:48:24.782Z,13.60
2023-02-08T19:50:26.445Z,13.20
2023-02-08T19:52:28.179Z,12.85
2023-02-08T19:54:29.906Z,12.90
2023-02-08T19:56:33.848Z,13.45
2023-02-08T19:58:36.534Z,13.70
2023-02-08T20:00:38.155Z,13.57
2023-02-08T20:02:39.865Z,14.25
2023-02-08T20:04:41.658Z,13.40
2023-02-08T20:06:45.077Z,14.20
2023-02-08T20:08:47.469Z,14.73
2023-02-08T20:10:49.219Z,16.02
2023-02-08T20:12:50.833Z,15.30
2023-02-08T20:14:52.609Z,15.50
2023-02-08T20:16:54.500Z,15.82
2023-02-08T20:18:56.329Z,15.05
2023-02-08T20:21:04.532Z,15.25
2023-02-08T20:23:21.764Z,15.25
2023-02-08T20:25:24.515Z,20.23
2023-02-08T20:27:32.147Z,17.10
2023-02-08T20:29:33.874Z,17.58
2023-02-08T20:31:37.575Z,17.00
2023-02-08T20:33:39.445Z,17.17
2023-02-08T20:35:41.245Z,14.27
2023-02-08T20:37:43.202Z,20.98
2023-02-08T20:39:44.866Z,17.70
2023-02-08T20:41:47.745Z,13.98
2023-02-08T20:43:49.578Z,15.55
2023-02-08T20:45:51.224Z,15.57
2023-02-08T20:47:52.825Z,16.30
2023-02-08T20:49:54.430Z,16.23
2023-02-08T20:51:56.251Z,15.35
2023-02-08T20:53:59.760Z,15.20
2023-02-08T20:56:06.161Z,15.35
2023-02-08T20:58:08.126Z,18.45
2023-02-08T21:00:10.561Z,17.52
2023-02-08T21:02:22.743Z,18.65
2023-02-08T21:04:24.475Z,18.55
2023-02-08T21:06:31.318Z,21.00
2023-02-08T21:08:33.025Z,32.45
2023-02-08T21:10:37.872Z,22.25
2023-02-08T21:12:39.512Z,20.40
2023-02-08T21:14:43.176Z,22.50
2023-02-08T21:16:46.397Z,21.48
2023-02-08T21:18:48.215Z,21.73
2023-02-08T21:20:50.055Z,20.60
2023-02-08T21:22:51.670Z,21.27
2023-02-08T21:24:53.322Z,21.95
2023-02-08T21:26:56.284Z,22.02
2023-02-08T21:28:58.886Z,22.47
2023-02-08T21:31:02.428Z,20.35
2023-02-08T21:33:04.207Z,20.05
2023-02-08T21:35:06.323Z,19.17
2023-02-08T21:37:07.915Z,19.98
2023-02-08T21:39:09.643Z,18.67
2023-02-08T21:41:17.393Z,17.75
2023-02-08T21:43:19.016Z,17.73
2023-02-08T21:45:20.590Z,16.95
2023-02-08T21:47:22.246Z,18.38
2023-02-08T21:49:42.112Z,22.88
2023-02-08T21:52:02.809Z,31.50
2023-02-08T21:54:23.784Z,32.67
2023-02-08T21:56:25.420Z,33.10
2023-02-08T21:58:27.110Z,30.48
2023-02-08T22:00:28.773Z,28.60
2023-02-08T22:02:30.859Z,28.80
2023-02-08T22:04:33.855Z,28.83
2023-02-08T22:06:50.743Z,28.83
2023-02-08T22:08:52.352Z,28.02
2023-02-08T22:10:58.461Z,28.45
2023-02-08T22:13:00.573Z,28.30
2023-02-08T22:15:02.265Z,27.15
2023-02-08T22:17:03.920Z,25.30
2023-02-08T22:19:06.096Z,28.67
2023-02-08T22:21:08.650Z,24.52
2023-02-08T22:23:10.195Z,22.85
2023-02-08T22:25:12.184Z,24.98
2023-02-08T22:27:13.832Z,24.98
2023-02-08T22:29:15.401Z,24.08
2023-02-08T22:31:17.295Z,23.77
2023-02-08T22:33:19.033Z,23.30
2023-02-08T22:35:20.652Z,21.98
2023-02-08T22:37:22.291Z,22.23
2023-02-08T22:39:24.143Z,22.85
2023-02-08T22:41:25.782Z,22.30
2023-02-08T22:43:28.974Z,23.13
2023-02-08T22:45:30.690Z,22.05
2023-02-08T22:47:33.398Z,23.48
2023-02-08T22:49:35.728Z,22.95
2023-02-08T22:51:37.866Z,24.35
2023-02-08T22:53:39.912Z,23.85
2023-02-08T22:55:47.489Z,22.80
2023-02-08T22:57:49.122Z,25.05
2023-02-08T22:59:50.800Z,24.35
2023-02-08T23:01:52.453Z,24.42
2023-02-08T23:03:54.332Z,22.83
2023-02-08T23:05:56.119Z,22.92
2023-02-08T23:07:57.686Z,22.48
2023-02-08T23:09:59.254Z,23.63
2023-02-08T23:12:01.128Z,23.33
2023-02-08T23:14:02.739Z,23.23
2023-02-08T23:16:04.629Z,24.70
2023-02-08T23:18:07.813Z,25.73
2023-02-08T23:20:10.025Z,26.35
2023-02-08T23:22:11.616Z,26.10
2023-02-08T23:24:13.271Z,27.40
2023-02-08T23:26:17.719Z,25.08
2023-02-08T23:28:19.348Z,23.35
2023-02-08T23:30:21.036Z,25.00
2023-02-08T23:32:22.627Z,24.05
2023-02-08T23:34:24.225Z,22.70
2023-02-08T23:36:25.949Z,24.23
2023-02-08T23:38:27.663Z,25.05
2023-02-08T23:40:29.280Z,23.52
2023-02-08T23:42:30.867Z,25.38
2023-02-08T23:44:32.430Z,25.88
2023-02-08T23:46:34.187Z,25.15
2023-02-08T23:48:37.851Z,25.88
2023-02-08T23:50:40.745Z,27.17
2023-02-08T23:52:42.291Z,25.13
2023-02-08T23:54:43.897Z,27.85
2023-02-08T23:56:45.550Z,26.13
2023-02-08T23:58:48.871Z,25.02
